createdAt,value
2018-11-28T00:04:24.771Z,-5.30
2018-11-28T00:09:44.346Z,-5.50
2018-11-28T00:14:48.951Z,-5.50
2018-11-28T00:19:53.608Z,-5.30
2018-11-28T00:24:58.299Z,-5.60
2018-11-28T00:30:02.983Z,-5.60
2018-11-28T00:35:08.962Z,-5.50
2018-11-28T00:40:14.566Z,-5.60
2018-11-28T00:45:21.026Z,-5.70
2018-11-28T00:50:26.777Z,-5.80
2018-11-28T00:55:31.443Z,-5.90
2018-11-28T01:00:36.145Z,-5.80
2018-11-28T01:05:40.837Z,-5.90
2018-11-28T01:10:45.516Z,-5.90
2018-11-28T01:15:50.175Z,-6.00
2018-11-28T01:20:54.873Z,-6.00
2018-11-28T01:25:59.534Z,-5.90
2018-11-28T01:31:04.262Z,-6.10
2018-11-28T01:36:09.042Z,-6.00
2018-11-28T01:41:13.745Z,-6.00
2018-11-28T01:46:18.475Z,-6.10
2018-11-28T01:51:23.150Z,-6.10
2018-11-28T01:56:27.811Z,-6.20
2018-11-28T02:01:32.499Z,-6.20
2018-11-28T02:06:37.259Z,-6.20
2018-11-28T02:11:41.944Z,-6.30
2018-11-28T02:16:46.635Z,-6.30
2018-11-28T02:21:51.380Z,-6.40
2018-11-28T02:26:56.027Z,-6.30
2018-11-28T02:32:01.782Z,-6.30
2018-11-28T02:37:07.166Z,-6.40
2018-11-28T02:42:12.805Z,-6.40
2018-11-28T02:47:17.997Z,-6.40
2018-11-28T02:52:24.032Z,-6.50
2018-11-28T02:57:29.145Z,-6.50
2018-11-28T03:02:34.111Z,-6.40
2018-11-28T03:07:39.060Z,-6.40
2018-11-28T03:12:44.701Z,-6.50
2018-11-28T03:17:50.536Z,-6.50
2018-11-28T03:22:55.543Z,-6.70
2018-11-28T03:28:00.427Z,-6.70
2018-11-28T03:33:05.853Z,-6.70
2018-11-28T03:38:10.789Z,-6.70
2018-11-28T03:43:23.621Z,-6.50
2018-11-28T03:48:33.071Z,-6.60
2018-11-28T03:53:39.022Z,-6.50
2018-11-28T03:58:43.973Z,-6.60
2018-11-28T04:03:52.173Z,-6.60
2018-11-28T04:08:57.924Z,-6.50
2018-11-28T04:14:05.317Z,-6.50
2018-11-28T04:19:12.144Z,-6.60
2018-11-28T04:24:18.865Z,-6.70
2018-11-28T04:29:24.254Z,-6.80
2018-11-28T04:34:30.591Z,-6.70
2018-11-28T04:39:35.200Z,-6.80
2018-11-28T04:44:40.131Z,-6.80
2018-11-28T04:49:45.803Z,-6.80
2018-11-28T05:00:41.528Z,-6.90
2018-11-28T05:11:04.341Z,-6.70
2018-11-28T05:16:08.978Z,-6.70
2018-11-28T05:21:13.733Z,-6.90
2018-11-28T05:26:19.229Z,-7.00
2018-11-28T05:31:23.844Z,-7.00
2018-11-28T05:36:28.487Z,-7.00
2018-11-28T05:41:33.090Z,-7.10
2018-11-28T05:46:37.637Z,-7.00
2018-11-28T05:51:43.590Z,-7.00
2018-11-28T05:56:49.617Z,-7.10
2018-11-28T06:01:54.185Z,-7.10
2018-11-28T06:06:58.766Z,-7.10
2018-11-28T06:12:03.347Z,-7.10
2018-11-28T06:17:07.855Z,-7.10
2018-11-28T06:22:12.359Z,-7.10
2018-11-28T06:27:16.856Z,-7.20
2018-11-28T06:32:21.378Z,-7.20
2018-11-28T06:37:26.041Z,-7.10
2018-11-28T06:42:30.559Z,-7.10
2018-11-28T06:47:35.203Z,-7.10
2018-11-28T06:52:39.696Z,-7.20
2018-11-28T06:57:44.446Z,-7.10
2018-11-28T07:02:49.899Z,-7.20
2018-11-28T07:07:54.439Z,-7.10
2018-11-28T07:12:58.983Z,-7.10
2018-11-28T07:18:14.403Z,-7.10
2018-11-28T07:23:18.893Z,-6.90
2018-11-28T07:28:23.499Z,-6.90
2018-11-28T07:33:27.996Z,-6.80
2018-11-28T07:38:32.512Z,-6.80
2018-11-28T07:43:37.147Z,-6.70
2018-11-28T07:48:41.670Z,-6.60
2018-11-28T07:53:46.171Z,-6.60
2018-11-28T07:58:50.703Z,-6.50
2018-11-28T08:03:55.224Z,-6.40
2018-11-28T08:08:59.723Z,-6.20
2018-11-28T08:14:04.214Z,-6.10
2018-11-28T08:19:08.752Z,-5.90
2018-11-28T08:24:13.298Z,-5.60
2018-11-28T08:29:17.871Z,-5.60
2018-11-28T08:34:23.590Z,-5.60
2018-11-28T08:39:27.018Z,-5.50
2018-11-28T08:44:31.567Z,-5.40
2018-11-28T08:49:36.130Z,-5.40
2018-11-28T08:54:40.635Z,-5.20
2018-11-28T08:59:45.212Z,-5.10
2018-11-28T09:04:49.743Z,-4.90
2018-11-28T09:09:54.251Z,-4.60
2018-11-28T09:14:58.798Z,-4.60
2018-11-28T09:20:03.342Z,-4.50
2018-11-28T09:25:12.244Z,-4.40
2018-11-28T09:30:18.503Z,-4.10
2018-11-28T09:35:23.049Z,-3.90
2018-11-28T09:40:27.925Z,-3.80
2018-11-28T09:45:32.424Z,-3.60
2018-11-28T09:50:36.995Z,-3.50
2018-11-28T09:55:41.524Z,-3.30
2018-11-28T10:00:46.032Z,-3.20
2018-11-28T10:05:50.593Z,-3.00
2018-11-28T10:10:55.088Z,-2.80
2018-11-28T10:16:00.214Z,-2.80
2018-11-28T10:21:04.191Z,-2.70
2018-11-28T10:26:08.700Z,-2.60
2018-11-28T10:31:13.221Z,-2.50
2018-11-28T10:36:17.814Z,-2.40
2018-11-28T10:41:22.351Z,-2.30
2018-11-28T10:46:27.617Z,-2.10
2018-11-28T10:51:31.431Z,-2.00
2018-11-28T10:56:35.950Z,-2.00
2018-11-28T11:01:45.734Z,-1.90
2018-11-28T11:06:55.252Z,-1.80
2018-11-28T11:12:04.895Z,-1.70
2018-11-28T11:17:09.422Z,-1.70
2018-11-28T11:22:13.966Z,-1.60
2018-11-28T11:27:18.522Z,-1.60
2018-11-28T11:32:23.076Z,-1.60
2018-11-28T11:37:27.578Z,-1.50
2018-11-28T11:42:32.099Z,-1.40
2018-11-28T11:47:36.616Z,-1.40
2018-11-28T11:52:41.456Z,-1.20
2018-11-28T11:57:46.095Z,-1.00
2018-11-28T12:03:02.255Z,-1.00
2018-11-28T12:08:07.453Z,-0.80
2018-11-28T12:13:12.096Z,-0.70
2018-11-28T12:18:16.847Z,-0.40
2018-11-28T12:23:21.530Z,-0.40
2018-11-28T12:28:26.188Z,-0.40
2018-11-28T12:33:30.874Z,-0.40
2018-11-28T12:38:35.564Z,-0.20
2018-11-28T12:43:40.227Z,-0.20
2018-11-28T12:48:44.872Z,-0.30
2018-11-28T12:53:49.534Z,-0.40
2018-11-28T12:58:54.153Z,-0.50
2018-11-28T13:03:58.793Z,-0.50
2018-11-28T13:09:03.414Z,-0.30
2018-11-28T13:14:07.936Z,-0.30
2018-11-28T13:19:12.466Z,-0.30
2018-11-28T13:24:16.994Z,-0.40
2018-11-28T13:29:21.558Z,-0.40
2018-11-28T13:34:26.097Z,-0.40
2018-11-28T13:39:30.593Z,-0.60
2018-11-28T13:44:35.099Z,-0.60
2018-11-28T13:49:39.702Z,-0.80
2018-11-28T13:55:37.812Z,-0.90
2018-11-28T13:59:48.771Z,-1.00
2018-11-28T14:04:53.294Z,-1.10
2018-11-28T14:09:57.814Z,-1.20
2018-11-28T14:15:02.372Z,-1.10
2018-11-28T14:20:08.683Z,-1.10
2018-11-28T14:25:14.032Z,-1.20
2018-11-28T14:30:19.624Z,-1.30
2018-11-28T14:35:24.120Z,-1.30
2018-11-28T14:40:28.619Z,-1.50
2018-11-28T14:45:33.482Z,-1.60
2018-11-28T14:50:38.218Z,-1.60
2018-11-28T14:55:42.746Z,-1.80
2018-11-28T15:00:47.396Z,-1.90
2018-11-28T15:06:29.927Z,-2.00
2018-11-28T15:11:34.491Z,-2.10
2018-11-28T15:16:39.067Z,-2.20
2018-11-28T15:21:43.544Z,-2.30
2018-11-28T15:26:48.155Z,-2.30
2018-11-28T15:31:53.494Z,-2.40
2018-11-28T15:36:58.142Z,-2.50
2018-11-28T15:42:02.629Z,-2.60
2018-11-28T15:47:07.096Z,-2.70
2018-11-28T15:52:11.548Z,-2.70
2018-11-28T15:57:16.310Z,-2.80
2018-11-28T16:02:20.837Z,-2.90
2018-11-28T16:07:25.305Z,-3.00
2018-11-28T16:12:29.773Z,-3.00
2018-11-28T16:17:34.242Z,-3.10
2018-11-28T16:22:38.738Z,-3.20
2018-11-28T16:27:43.248Z,-3.30
2018-11-28T16:32:49.399Z,-3.30
2018-11-28T16:37:53.949Z,-3.30
2018-11-28T16:42:58.420Z,-3.40
2018-11-28T16:48:02.939Z,-3.50
2018-11-28T16:53:07.635Z,-3.50
2018-11-28T16:58:12.373Z,-3.70
2018-11-28T17:03:16.978Z,-3.70
2018-11-28T17:08:21.507Z,-3.90
2018-11-28T17:13:30.204Z,-3.90
2018-11-28T17:18:34.787Z,-4.00
2018-11-28T17:23:39.491Z,-4.00
2018-11-28T17:28:43.975Z,-4.10
2018-11-28T17:33:54.087Z,-4.20
2018-11-28T17:38:58.589Z,-4.20
2018-11-28T17:44:03.102Z,-4.30
2018-11-28T17:49:12.351Z,-4.40
2018-11-28T18:21:25.721Z,-4.50
2018-11-28T18:26:30.777Z,-4.70
2018-11-28T18:31:35.318Z,-4.60
2018-11-28T18:36:39.888Z,-4.80
2018-11-28T18:41:45.052Z,-4.90
2018-11-28T18:46:53.420Z,-5.00
2018-11-28T18:51:58.188Z,-5.00
2018-11-28T18:57:07.774Z,-5.00
2018-11-28T19:02:12.755Z,-5.00
2018-11-28T19:07:18.162Z,-5.20
2018-11-28T19:12:23.933Z,-5.20
2018-11-28T19:17:31.190Z,-5.10
2018-11-28T19:22:36.020Z,-5.30
2018-11-28T19:27:41.240Z,-5.40
2018-11-28T19:32:51.526Z,-5.30
2018-11-28T19:37:59.750Z,-5.30
2018-11-28T19:43:06.631Z,-5.50
2018-11-28T19:51:44.923Z,-5.50
2018-11-28T19:56:56.123Z,-5.50
2018-11-28T20:02:03.306Z,-5.50
2018-11-28T20:07:12.300Z,-5.60
2018-11-28T20:12:19.385Z,-5.80
2018-11-28T20:17:25.911Z,-5.90
2018-11-28T20:22:35.468Z,-5.70
2018-11-28T20:27:41.746Z,-5.60
2018-11-28T20:32:55.361Z,-5.80
2018-11-28T20:38:00.338Z,-5.80
2018-11-28T20:43:08.292Z,-5.70
2018-11-28T20:48:13.202Z,-5.80
2018-11-28T20:53:19.565Z,-5.90
2018-11-28T20:58:25.073Z,-5.90
2018-11-28T21:03:30.326Z,-6.00
2018-11-28T21:08:35.436Z,-5.90
2018-11-28T21:13:41.636Z,-5.90
2018-11-28T21:18:49.227Z,-6.00
2018-11-28T21:23:54.217Z,-6.00
2018-11-28T21:28:59.096Z,-6.00
2018-11-28T21:34:04.000Z,-6.00
2018-11-28T21:39:10.110Z,-6.10
2018-11-28T21:44:14.807Z,-6.30
2018-11-28T21:49:19.507Z,-6.20
2018-11-28T21:54:24.105Z,-6.30
2018-11-28T21:59:28.772Z,-6.30
2018-11-28T22:04:33.638Z,-6.20
2018-11-28T22:09:39.622Z,-6.30
2018-11-28T22:14:44.296Z,-6.20
2018-11-28T22:19:49.018Z,-6.30
2018-11-28T22:24:53.661Z,-6.20
2018-11-28T22:29:58.379Z,-6.30
2018-11-28T22:35:03.016Z,-6.30
2018-11-28T22:40:11.194Z,-6.30
2018-11-28T22:45:22.008Z,-6.20
2018-11-28T22:50:26.722Z,-6.20
2018-11-28T22:55:31.479Z,-6.00
2018-11-28T23:00:41.415Z,-5.90
2018-11-28T23:05:52.969Z,-5.90
2018-11-28T23:10:57.606Z,-5.70
2018-11-28T23:16:02.271Z,-5.70
2018-11-28T23:21:07.057Z,-5.60
2018-11-28T23:26:11.660Z,-5.60
2018-11-28T23:31:16.300Z,-5.60
2018-11-28T23:36:20.879Z,-5.70
2018-11-28T23:41:25.563Z,-5.60
2018-11-28T23:46:30.206Z,-5.60
2018-11-28T23:51:34.824Z,-5.70
2018-11-28T23:56:39.475Z,-5.80
